sensor_id;sensor_type;location;lat;lon;timestamp;pressure;altitude;pressure_sealevel;temperature;humidity
69306;BME280;56427;51.580;4.656;2023-04-15T00:00:28;100722.13;;;8.74;100.00
69306;BME280;56427;51.580;4.656;2023-04-15T00:02:54;100718.34;;;8.66;100.00
69306;BME280;56427;51.580;4.656;2023-04-15T00:05:20;100713.28;;;8.76;100.00
69306;BME280;56427;51.580;4.656;2023-04-15T00:07:45;100711.44;;;8.56;100.00
69306;BME280;56427;51.580;4.656;2023-04-15T00:10:11;100713.53;;;8.51;100.00
69306;BME280;56427;51.580;4.656;2023-04-15T00:12:36;100719.53;;;8.74;100.00
69306;BME280;56427;51.580;4.656;2023-04-15T00:15:03;100719.66;;;8.50;100.00
69306;BME280;56427;51.580;4.656;2023-04-15T00:17:29;100720.09;;;8.43;100.00
69306;BME280;56427;51.580;4.656;2023-04-15T00:19:55;100720.00;;;8.56;100.00
69306;BME280;56427;51.580;4.656;2023-04-15T00:22:20;100715.06;;;8.64;100.00
69306;BME280;56427;51.580;4.656;2023-04-15T00:24:46;100714.38;;;8.62;100.00
69306;BME280;56427;51.580;4.656;2023-04-15T00:27:12;100720.81;;;8.57;100.00
69306;BME280;56427;51.580;4.656;2023-04-15T00:29:37;100721.78;;;8.56;100.00
69306;BME280;56427;51.580;4.656;2023-04-15T00:32:02;100719.53;;;8.62;100.00
69306;BME280;56427;51.580;4.656;2023-04-15T00:34:28;100715.28;;;8.61;100.00
69306;BME280;56427;51.580;4.656;2023-04-15T00:36:54;100718.13;;;8.47;100.00
69306;BME280;56427;51.580;4.656;2023-04-15T00:39:19;100724.72;;;8.51;100.00
69306;BME280;56427;51.580;4.656;2023-04-15T00:41:45;100719.19;;;8.67;100.00
69306;BME280;56427;51.580;4.656;2023-04-15T00:44:10;100718.47;;;8.65;100.00
69306;BME280;56427;51.580;4.656;2023-04-15T00:46:37;100718.38;;;8.55;100.00
69306;BME280;56427;51.580;4.656;2023-04-15T00:49:04;100723.63;;;8.42;100.00
69306;BME280;56427;51.580;4.656;2023-04-15T00:51:30;100718.44;;;8.42;100.00
69306;BME280;56427;51.580;4.656;2023-04-15T00:54:06;100713.19;;;8.44;100.00
69306;BME280;56427;51.580;4.656;2023-04-15T00:56:35;100718.91;;;8.36;100.00
69306;BME280;56427;51.580;4.656;2023-04-15T00:59:02;100713.28;;;8.42;100.00
69306;BME280;56427;51.580;4.656;2023-04-15T01:01:28;100713.72;;;8.25;100.00
69306;BME280;56427;51.580;4.656;2023-04-15T01:03:55;100715.50;;;8.24;100.00
69306;BME280;56427;51.580;4.656;2023-04-15T01:06:22;100721.91;;;8.19;100.00
69306;BME280;56427;51.580;4.656;2023-04-15T01:08:47;100714.47;;;7.91;100.00
69306;BME280;56427;51.580;4.656;2023-04-15T01:11:13;100726.53;;;7.80;100.00
69306;BME280;56427;51.580;4.656;2023-04-15T01:13:39;100739.13;;;7.96;100.00
69306;BME280;56427;51.580;4.656;2023-04-15T01:16:06;100726.56;;;7.91;100.00
69306;BME280;56427;51.580;4.656;2023-04-15T01:18:33;100732.53;;;7.80;100.00
69306;BME280;56427;51.580;4.656;2023-04-15T01:21:00;100732.13;;;7.98;100.00
69306;BME280;56427;51.580;4.656;2023-04-15T01:23:26;100727.94;;;7.84;100.00
69306;BME280;56427;51.580;4.656;2023-04-15T01:25:52;100724.88;;;7.79;100.00
69306;BME280;56427;51.580;4.656;2023-04-15T01:28:18;100731.13;;;7.87;100.00
69306;BME280;56427;51.580;4.656;2023-04-15T01:30:44;100726.00;;;7.63;100.00
69306;BME280;56427;51.580;4.656;2023-04-15T01:33:09;100721.59;;;7.77;100.00
69306;BME280;56427;51.580;4.656;2023-04-15T01:35:35;100732.78;;;7.88;100.00
69306;BME280;56427;51.580;4.656;2023-04-15T01:38:07;100722.03;;;8.06;100.00
69306;BME280;56427;51.580;4.656;2023-04-15T01:40:33;100717.94;;;8.15;100.00
69306;BME280;56427;51.580;4.656;2023-04-15T01:42:59;100728.84;;;8.07;100.00
69306;BME280;56427;51.580;4.656;2023-04-15T01:45:25;100728.09;;;7.93;100.00
69306;BME280;56427;51.580;4.656;2023-04-15T01:47:51;100726.84;;;8.10;100.00
69306;BME280;56427;51.580;4.656;2023-04-15T01:50:16;100726.53;;;8.38;100.00
69306;BME280;56427;51.580;4.656;2023-04-15T01:52:43;100729.88;;;8.51;100.00
69306;BME280;56427;51.580;4.656;2023-04-15T01:55:08;100728.56;;;8.57;100.00
69306;BME280;56427;51.580;4.656;2023-04-15T01:57:34;100728.47;;;8.47;100.00
69306;BME280;56427;51.580;4.656;2023-04-15T01:59:59;100734.13;;;8.52;100.00
69306;BME280;56427;51.580;4.656;2023-04-15T02:02:25;100733.88;;;8.78;100.00
69306;BME280;56427;51.580;4.656;2023-04-15T02:04:50;100728.34;;;8.71;100.00
69306;BME280;56427;51.580;4.656;2023-04-15T02:07:15;100739.19;;;8.54;100.00
69306;BME280;56427;51.580;4.656;2023-04-15T02:09:41;100732.53;;;8.38;100.00
69306;BME280;56427;51.580;4.656;2023-04-15T02:12:08;100731.19;;;8.45;100.00
69306;BME280;56427;51.580;4.656;2023-04-15T02:14:34;100736.72;;;8.52;100.00
69306;BME280;56427;51.580;4.656;2023-04-15T02:16:59;100734.94;;;8.75;100.00
69306;BME280;56427;51.580;4.656;2023-04-15T02:19:31;100740.59;;;8.58;100.00
69306;BME280;56427;51.580;4.656;2023-04-15T02:21:57;100739.78;;;8.69;100.00
69306;BME280;56427;51.580;4.656;2023-04-15T02:24:22;100741.06;;;8.74;100.00
69306;BME280;56427;51.580;4.656;2023-04-15T02:26:48;100744.91;;;8.91;100.00
69306;BME280;56427;51.580;4.656;2023-04-15T02:29:13;100754.69;;;9.10;100.00
69306;BME280;56427;51.580;4.656;2023-04-15T02:31:38;100750.81;;;8.82;100.00
69306;BME280;56427;51.580;4.656;2023-04-15T02:34:06;100756.34;;;8.66;100.00
69306;BME280;56427;51.580;4.656;2023-04-15T02:36:32;100752.94;;;8.54;100.00
69306;BME280;56427;51.580;4.656;2023-04-15T02:38:58;100758.13;;;8.77;100.00
69306;BME280;56427;51.580;4.656;2023-04-15T02:41:25;100767.50;;;8.78;100.00
69306;BME280;56427;51.580;4.656;2023-04-15T02:43:52;100768.22;;;8.69;100.00
69306;BME280;56427;51.580;4.656;2023-04-15T02:46:18;100772.34;;;8.71;100.00
69306;BME280;56427;51.580;4.656;2023-04-15T02:48:43;100773.88;;;8.74;100.00
69306;BME280;56427;51.580;4.656;2023-04-15T02:51:20;100769.25;;;8.55;100.00
69306;BME280;56427;51.580;4.656;2023-04-15T02:53:47;100770.94;;;8.67;100.00
69306;BME280;56427;51.580;4.656;2023-04-15T02:56:13;100775.75;;;8.60;100.00
69306;BME280;56427;51.580;4.656;2023-04-15T02:58:40;100774.09;;;8.71;100.00
69306;BME280;56427;51.580;4.656;2023-04-15T03:01:06;100777.75;;;8.79;100.00
69306;BME280;56427;51.580;4.656;2023-04-15T03:03:33;100785.63;;;9.00;100.00
69306;BME280;56427;51.580;4.656;2023-04-15T03:05:58;100790.91;;;8.88;100.00
69306;BME280;56427;51.580;4.656;2023-04-15T03:08:24;100786.22;;;8.70;100.00
69306;BME280;56427;51.580;4.656;2023-04-15T03:10:49;100789.47;;;8.50;100.00
69306;BME280;56427;51.580;4.656;2023-04-15T03:13:16;100794.38;;;8.41;100.00
69306;BME280;56427;51.580;4.656;2023-04-15T03:15:42;100797.34;;;8.48;100.00
69306;BME280;56427;51.580;4.656;2023-04-15T03:18:07;100793.25;;;8.45;100.00
69306;BME280;56427;51.580;4.656;2023-04-15T03:20:33;100810.13;;;8.38;100.00
69306;BME280;56427;51.580;4.656;2023-04-15T03:22:59;100806.78;;;8.49;100.00
69306;BME280;56427;51.580;4.656;2023-04-15T03:25:25;100814.97;;;8.43;100.00
69306;BME280;56427;51.580;4.656;2023-04-15T03:27:51;100817.69;;;8.17;100.00
69306;BME280;56427;51.580;4.656;2023-04-15T03:30:16;100823.56;;;8.08;100.00
69306;BME280;56427;51.580;4.656;2023-04-15T03:32:42;100817.56;;;8.43;100.00
69306;BME280;56427;51.580;4.656;2023-04-15T03:35:07;100816.34;;;8.94;100.00
69306;BME280;56427;51.580;4.656;2023-04-15T03:37:33;100820.88;;;8.56;100.00
69306;BME280;56427;51.580;4.656;2023-04-15T03:39:59;100828.44;;;8.35;100.00
69306;BME280;56427;51.580;4.656;2023-04-15T03:42:24;100830.19;;;8.23;100.00
69306;BME280;56427;51.580;4.656;2023-04-15T03:44:50;100823.56;;;8.43;100.00
69306;BME280;56427;51.580;4.656;2023-04-15T03:47:15;100831.25;;;8.32;100.00
69306;BME280;56427;51.580;4.656;2023-04-15T03:49:40;100841.38;;;8.35;100.00
69306;BME280;56427;51.580;4.656;2023-04-15T03:52:06;100842.66;;;8.29;100.00
69306;BME280;56427;51.580;4.656;2023-04-15T03:54:31;100841.84;;;8.40;100.00
69306;BME280;56427;51.580;4.656;2023-04-15T03:56:57;100846.22;;;8.16;100.00
69306;BME280;56427;51.580;4.656;2023-04-15T03:59:22;100850.84;;;8.23;100.00
69306;BME280;56427;51.580;4.656;2023-04-15T04:01:48;100850.44;;;8.05;100.00
69306;BME280;56427;51.580;4.656;2023-04-15T04:04:13;100849.88;;;8.13;100.00
69306;BME280;56427;51.580;4.656;2023-04-15T04:06:38;100850.69;;;8.14;100.00
69306;BME280;56427;51.580;4.656;2023-04-15T04:09:04;100858.84;;;8.20;100.00
69306;BME280;56427;51.580;4.656;2023-04-15T04:11:29;100855.16;;;8.11;100.00
69306;BME280;56427;51.580;4.656;2023-04-15T04:13:55;100849.41;;;8.08;100.00
69306;BME280;56427;51.580;4.656;2023-04-15T04:16:21;100856.03;;;8.23;100.00
69306;BME280;56427;51.580;4.656;2023-04-15T04:18:46;100862.91;;;8.11;100.00
69306;BME280;56427;51.580;4.656;2023-04-15T04:21:11;100865.00;;;8.66;100.00
69306;BME280;56427;51.580;4.656;2023-04-15T04:23:37;100862.69;;;8.39;100.00
69306;BME280;56427;51.580;4.656;2023-04-15T04:26:02;100864.84;;;8.21;100.00
69306;BME280;56427;51.580;4.656;2023-04-15T04:28:28;100876.31;;;7.92;100.00
69306;BME280;56427;51.580;4.656;2023-04-15T04:30:53;100872.66;;;7.84;100.00
69306;BME280;56427;51.580;4.656;2023-04-15T04:33:18;100875.06;;;7.74;100.00
69306;BME280;56427;51.580;4.656;2023-04-15T04:35:44;100881.56;;;7.80;100.00
69306;BME280;56427;51.580;4.656;2023-04-15T04:38:09;100880.88;;;7.89;100.00
69306;BME280;56427;51.580;4.656;2023-04-15T04:40:35;100891.38;;;7.74;100.00
69306;BME280;56427;51.580;4.656;2023-04-15T04:43:00;100897.94;;;7.54;100.00
69306;BME280;56427;51.580;4.656;2023-04-15T04:45:26;100891.22;;;7.65;100.00
69306;BME280;56427;51.580;4.656;2023-04-15T04:47:51;100905.88;;;7.51;100.00
69306;BME280;56427;51.580;4.656;2023-04-15T04:50:17;100901.75;;;7.62;100.00
69306;BME280;56427;51.580;4.656;2023-04-15T04:52:42;100911.78;;;7.53;100.00
69306;BME280;56427;51.580;4.656;2023-04-15T04:55:07;100917.28;;;7.49;100.00
69306;BME280;56427;51.580;4.656;2023-04-15T04:57:33;100920.56;;;7.38;100.00
69306;BME280;56427;51.580;4.656;2023-04-15T05:00:01;100925.63;;;7.27;100.00
69306;BME280;56427;51.580;4.656;2023-04-15T05:02:27;100926.03;;;7.46;100.00
69306;BME280;56427;51.580;4.656;2023-04-15T05:04:52;100927.81;;;7.33;100.00
69306;BME280;56427;51.580;4.656;2023-04-15T05:07:18;100934.84;;;7.44;100.00
69306;BME280;56427;51.580;4.656;2023-04-15T05:09:45;100939.59;;;7.37;100.00
69306;BME280;56427;51.580;4.656;2023-04-15T05:12:11;100952.47;;;7.63;100.00
69306;BME280;56427;51.580;4.656;2023-04-15T05:14:39;100945.97;;;7.57;100.00
69306;BME280;56427;51.580;4.656;2023-04-15T05:17:05;100960.22;;;7.63;100.00
69306;BME280;56427;51.580;4.656;2023-04-15T05:19:30;100957.22;;;7.56;100.00
69306;BME280;56427;51.580;4.656;2023-04-15T05:21:56;100969.31;;;7.81;100.00
69306;BME280;56427;51.580;4.656;2023-04-15T05:24:21;100963.72;;;8.11;100.00
69306;BME280;56427;51.580;4.656;2023-04-15T05:26:47;100974.75;;;8.75;100.00
69306;BME280;56427;51.580;4.656;2023-04-15T05:29:12;100981.16;;;8.82;100.00
69306;BME280;56427;51.580;4.656;2023-04-15T05:31:37;100986.13;;;9.08;100.00
69306;BME280;56427;51.580;4.656;2023-04-15T05:34:03;100980.97;;;8.96;100.00
69306;BME280;56427;51.580;4.656;2023-04-15T05:36:29;100979.84;;;9.57;100.00
69306;BME280;56427;51.580;4.656;2023-04-15T05:38:55;100996.56;;;9.30;100.00
69306;BME280;56427;51.580;4.656;2023-04-15T05:41:20;100993.47;;;9.25;100.00
69306;BME280;56427;51.580;4.656;2023-04-15T05:43:46;100991.28;;;9.66;100.00
69306;BME280;56427;51.580;4.656;2023-04-15T05:46:11;101002.81;;;9.95;100.00
69306;BME280;56427;51.580;4.656;2023-04-15T05:48:37;101008.13;;;10.05;100.00
69306;BME280;56427;51.580;4.656;2023-04-15T05:51:02;101003.00;;;10.70;100.00
69306;BME280;56427;51.580;4.656;2023-04-15T05:53:27;101017.06;;;10.12;100.00
69306;BME280;56427;51.580;4.656;2023-04-15T05:55:53;101030.03;;;10.01;100.00
69306;BME280;56427;51.580;4.656;2023-04-15T05:58:18;101031.91;;;10.33;100.00
69306;BME280;56427;51.580;4.656;2023-04-15T06:00:44;101039.81;;;10.75;100.00
69306;BME280;56427;51.580;4.656;2023-04-15T06:03:10;101048.41;;;10.32;100.00
69306;BME280;56427;51.580;4.656;2023-04-15T06:05:35;101040.81;;;11.16;100.00
69306;BME280;56427;51.580;4.656;2023-04-15T06:08:01;101045.00;;;11.50;100.00
69306;BME280;56427;51.580;4.656;2023-04-15T06:10:27;101046.19;;;11.46;100.00
69306;BME280;56427;51.580;4.656;2023-04-15T06:12:52;101046.19;;;11.46;100.00
69306;BME280;56427;51.580;4.656;2023-04-15T06:15:18;101052.28;;;11.35;100.00
69306;BME280;56427;51.580;4.656;2023-04-15T06:17:43;101051.09;;;12.41;100.00
69306;BME280;56427;51.580;4.656;2023-04-15T06:20:09;101060.94;;;12.38;100.00
69306;BME280;56427;51.580;4.656;2023-04-15T06:22:36;101066.34;;;13.14;100.00
69306;BME280;56427;51.580;4.656;2023-04-15T06:25:02;101073.41;;;12.34;100.00
69306;BME280;56427;51.580;4.656;2023-04-15T06:27:28;101074.28;;;12.74;100.00
69306;BME280;56427;51.580;4.656;2023-04-15T06:29:53;101080.69;;;12.60;100.00
69306;BME280;56427;51.580;4.656;2023-04-15T06:32:18;101082.94;;;13.13;100.00
69306;BME280;56427;51.580;4.656;2023-04-15T06:34:44;101093.03;;;12.48;100.00
69306;BME280;56427;51.580;4.656;2023-04-15T06:37:09;101088.34;;;12.32;100.00
69306;BME280;56427;51.580;4.656;2023-04-15T06:39:39;101094.69;;;12.08;100.00
69306;BME280;56427;51.580;4.656;2023-04-15T06:42:05;101098.16;;;12.79;100.00
69306;BME280;56427;51.580;4.656;2023-04-15T06:44:31;101099.25;;;13.15;99.47
69306;BME280;56427;51.580;4.656;2023-04-15T06:46:56;101112.53;;;13.02;98.21
69306;BME280;56427;51.580;4.656;2023-04-15T06:49:21;101112.50;;;12.13;99.97
69306;BME280;56427;51.580;4.656;2023-04-15T06:51:47;101110.28;;;12.49;100.00
69306;BME280;56427;51.580;4.656;2023-04-15T06:54:12;101116.72;;;12.55;100.00
69306;BME280;56427;51.580;4.656;2023-04-15T06:56:37;101120.09;;;12.96;100.00
69306;BME280;56427;51.580;4.656;2023-04-15T06:59:03;101114.06;;;12.95;98.78
69306;BME280;56427;51.580;4.656;2023-04-15T07:01:28;101126.34;;;12.54;100.00
69306;BME280;56427;51.580;4.656;2023-04-15T07:03:54;101125.09;;;12.08;100.00
69306;BME280;56427;51.580;4.656;2023-04-15T07:06:19;101130.66;;;12.34;100.00
69306;BME280;56427;51.580;4.656;2023-04-15T07:08:46;101136.69;;;12.34;100.00
69306;BME280;56427;51.580;4.656;2023-04-15T07:11:11;101141.22;;;11.59;100.00
69306;BME280;56427;51.580;4.656;2023-04-15T07:13:37;101145.59;;;11.59;100.00
69306;BME280;56427;51.580;4.656;2023-04-15T07:16:02;101141.91;;;11.62;100.00
69306;BME280;56427;51.580;4.656;2023-04-15T07:18:28;101156.47;;;12.16;100.00
69306;BME280;56427;51.580;4.656;2023-04-15T07:20:53;101151.56;;;11.92;100.00
69306;BME280;56427;51.580;4.656;2023-04-15T07:23:19;101154.94;;;12.95;100.00
69306;BME280;56427;51.580;4.656;2023-04-15T07:25:45;101153.28;;;13.03;100.00
69306;BME280;56427;51.580;4.656;2023-04-15T07:28:11;101155.94;;;13.33;100.00
69306;BME280;56427;51.580;4.656;2023-04-15T07:30:37;101164.16;;;12.48;100.00
69306;BME280;56427;51.580;4.656;2023-04-15T07:33:02;101167.75;;;12.26;100.00
69306;BME280;56427;51.580;4.656;2023-04-15T07:35:28;101177.91;;;12.70;100.00
69306;BME280;56427;51.580;4.656;2023-04-15T07:37:53;101182.63;;;13.05;100.00
69306;BME280;56427;51.580;4.656;2023-04-15T07:40:19;101189.38;;;12.58;100.00
69306;BME280;56427;51.580;4.656;2023-04-15T07:42:44;101184.03;;;13.10;100.00
69306;BME280;56427;51.580;4.656;2023-04-15T07:45:11;101195.47;;;12.87;100.00
69306;BME280;56427;51.580;4.656;2023-04-15T07:47:37;101194.44;;;13.00;100.00
69306;BME280;56427;51.580;4.656;2023-04-15T07:50:02;101196.41;;;12.36;100.00
69306;BME280;56427;51.580;4.656;2023-04-15T07:52:27;101196.91;;;13.11;100.00
69306;BME280;56427;51.580;4.656;2023-04-15T07:54:53;101203.44;;;12.86;100.00
69306;BME280;56427;51.580;4.656;2023-04-15T07:57:18;101205.97;;;13.17;100.00
69306;BME280;56427;51.580;4.656;2023-04-15T07:59:44;101214.41;;;12.80;100.00
69306;BME280;56427;51.580;4.656;2023-04-15T08:02:10;101218.38;;;13.34;100.00
69306;BME280;56427;51.580;4.656;2023-04-15T08:04:35;101222.06;;;13.61;98.82
69306;BME280;56427;51.580;4.656;2023-04-15T08:07:02;101236.94;;;13.10;100.00
69306;BME280;56427;51.580;4.656;2023-04-15T08:09:28;101240.28;;;13.32;100.00
69306;BME280;56427;51.580;4.656;2023-04-15T08:11:53;101241.56;;;13.47;99.41
69306;BME280;56427;51.580;4.656;2023-04-15T08:14:19;101240.44;;;13.79;99.49
69306;BME280;56427;51.580;4.656;2023-04-15T08:16:44;101250.88;;;13.50;99.17
69306;BME280;56427;51.580;4.656;2023-04-15T08:19:10;101252.00;;;13.37;98.95
69306;BME280;56427;51.580;4.656;2023-04-15T08:21:35;101265.88;;;13.07;100.00
69306;BME280;56427;51.580;4.656;2023-04-15T08:24:01;101268.13;;;13.31;100.00
69306;BME280;56427;51.580;4.656;2023-04-15T08:26:27;101270.09;;;13.97;100.00
69306;BME280;56427;51.580;4.656;2023-04-15T08:28:52;101269.28;;;13.77;100.00
69306;BME280;56427;51.580;4.656;2023-04-15T08:31:18;101277.34;;;13.45;100.00
69306;BME280;56427;51.580;4.656;2023-04-15T08:33:43;101279.31;;;13.92;99.63
69306;BME280;56427;51.580;4.656;2023-04-15T08:36:09;101279.31;;;13.82;97.99
69306;BME280;56427;51.580;4.656;2023-04-15T08:38:35;101290.69;;;13.52;100.00
69306;BME280;56427;51.580;4.656;2023-04-15T08:43:51;101294.81;;;13.74;100.00
69306;BME280;56427;51.580;4.656;2023-04-15T08:46:17;101311.84;;;13.49;100.00
69306;BME280;56427;51.580;4.656;2023-04-15T08:48:43;101301.75;;;14.32;100.00
69306;BME280;56427;51.580;4.656;2023-04-15T08:51:08;101312.66;;;13.49;100.00
69306;BME280;56427;51.580;4.656;2023-04-15T08:53:35;101309.53;;;13.24;100.00
69306;BME280;56427;51.580;4.656;2023-04-15T08:56:03;101323.63;;;13.62;100.00
69306;BME280;56427;51.580;4.656;2023-04-15T08:58:30;101321.69;;;13.55;100.00
69306;BME280;56427;51.580;4.656;2023-04-15T09:00:56;101327.16;;;13.32;100.00
69306;BME280;56427;51.580;4.656;2023-04-15T09:03:21;101326.41;;;13.20;100.00
69306;BME280;56427;51.580;4.656;2023-04-15T09:05:48;101342.44;;;13.56;100.00
69306;BME280;56427;51.580;4.656;2023-04-15T09:08:14;101327.22;;;14.10;98.43
69306;BME280;56427;51.580;4.656;2023-04-15T09:10:39;101339.41;;;13.51;97.72
69306;BME280;56427;51.580;4.656;2023-04-15T09:13:05;101342.19;;;13.29;100.00
69306;BME280;56427;51.580;4.656;2023-04-15T09:15:31;101348.63;;;13.65;100.00
69306;BME280;56427;51.580;4.656;2023-04-15T09:17:57;101349.75;;;13.82;99.36
69306;BME280;56427;51.580;4.656;2023-04-15T09:20:22;101354.13;;;13.72;98.15
69306;BME280;56427;51.580;4.656;2023-04-15T09:22:49;101356.88;;;14.19;97.93
69306;BME280;56427;51.580;4.656;2023-04-15T09:27:57;101367.69;;;14.53;93.60
69306;BME280;56427;51.580;4.656;2023-04-15T09:30:23;101371.69;;;14.58;95.29
69306;BME280;56427;51.580;4.656;2023-04-15T09:35:19;101381.16;;;14.68;90.79
69306;BME280;56427;51.580;4.656;2023-04-15T09:37:45;101375.97;;;15.34;90.03
69306;BME280;56427;51.580;4.656;2023-04-15T09:40:11;101378.09;;;14.83;86.04
69306;BME280;56427;51.580;4.656;2023-04-15T09:42:36;101385.03;;;15.12;88.05
69306;BME280;56427;51.580;4.656;2023-04-15T09:45:18;101393.97;;;15.09;87.99
69306;BME280;56427;51.580;4.656;2023-04-15T09:47:43;101382.25;;;14.85;82.18
69306;BME280;56427;51.580;4.656;2023-04-15T09:50:09;101392.19;;;15.09;80.65
69306;BME280;56427;51.580;4.656;2023-04-15T09:52:40;101397.41;;;14.52;81.86
69306;BME280;56427;51.580;4.656;2023-04-15T09:55:07;101396.03;;;14.29;79.55
69306;BME280;56427;51.580;4.656;2023-04-15T09:57:33;101400.13;;;13.73;85.17
69306;BME280;56427;51.580;4.656;2023-04-15T10:00:00;101409.28;;;14.94;84.24
69306;BME280;56427;51.580;4.656;2023-04-15T10:02:26;101401.75;;;14.81;89.44
69306;BME280;56427;51.580;4.656;2023-04-15T10:04:52;101411.41;;;14.81;84.97
69306;BME280;56427;51.580;4.656;2023-04-15T10:07:20;101410.59;;;14.70;86.45
69306;BME280;56427;51.580;4.656;2023-04-15T10:09:47;101415.63;;;14.91;86.05
69306;BME280;56427;51.580;4.656;2023-04-15T10:12:15;101406.94;;;15.01;85.22
69306;BME280;56427;51.580;4.656;2023-04-15T10:14:41;101413.19;;;15.18;80.45
69306;BME280;56427;51.580;4.656;2023-04-15T10:17:10;101418.53;;;15.54;74.35
69306;BME280;56427;51.580;4.656;2023-04-15T10:19:37;101423.53;;;14.62;74.38
69306;BME280;56427;51.580;4.656;2023-04-15T10:22:03;101423.09;;;14.67;78.95
69306;BME280;56427;51.580;4.656;2023-04-15T10:24:32;101420.06;;;14.81;78.90
69306;BME280;56427;51.580;4.656;2023-04-15T10:27:02;101410.22;;;15.68;83.61
69306;BME280;56427;51.580;4.656;2023-04-15T10:29:28;101427.44;;;15.05;74.74
69306;BME280;56427;51.580;4.656;2023-04-15T10:31:54;101429.84;;;14.40;78.03
69306;BME280;56427;51.580;4.656;2023-04-15T10:34:22;101435.06;;;14.40;77.08
69306;BME280;56427;51.580;4.656;2023-04-15T10:36:48;101423.34;;;15.31;78.13
69306;BME280;56427;51.580;4.656;2023-04-15T10:42:15;101434.53;;;14.66;69.79
69306;BME280;56427;51.580;4.656;2023-04-15T10:44:43;101439.34;;;14.61;63.78
69306;BME280;56427;51.580;4.656;2023-04-15T10:47:14;101442.19;;;14.97;65.37
69306;BME280;56427;51.580;4.656;2023-04-15T10:49:57;101445.97;;;15.50;65.82
69306;BME280;56427;51.580;4.656;2023-04-15T10:52:25;101450.25;;;15.78;61.36
69306;BME280;56427;51.580;4.656;2023-04-15T10:55:02;101448.66;;;14.73;62.22
69306;BME280;56427;51.580;4.656;2023-04-15T10:57:34;101458.94;;;15.79;65.57
69306;BME280;56427;51.580;4.656;2023-04-15T11:00:07;101451.69;;;14.59;62.25
69306;BME280;56427;51.580;4.656;2023-04-15T11:05:08;101469.47;;;15.22;68.73
69306;BME280;56427;51.580;4.656;2023-04-15T11:07:54;101468.25;;;15.16;68.96
69306;BME280;56427;51.580;4.656;2023-04-15T11:12:46;101474.09;;;15.00;70.72
69306;BME280;56427;51.580;4.656;2023-04-15T11:20:33;101480.78;;;15.13;67.80
69306;BME280;56427;51.580;4.656;2023-04-15T11:22:58;101476.06;;;13.89;63.00
69306;BME280;56427;51.580;4.656;2023-04-15T11:25:24;101483.72;;;14.51;62.16
69306;BME280;56427;51.580;4.656;2023-04-15T11:27:51;101491.41;;;15.01;57.05
69306;BME280;56427;51.580;4.656;2023-04-15T11:30:22;101493.94;;;14.64;58.95
69306;BME280;56427;51.580;4.656;2023-04-15T11:32:49;101491.84;;;14.58;63.58
69306;BME280;56427;51.580;4.656;2023-04-15T11:35:16;101495.34;;;15.62;66.54
69306;BME280;56427;51.580;4.656;2023-04-15T11:37:42;101503.63;;;16.67;68.96
69306;BME280;56427;51.580;4.656;2023-04-15T11:40:08;101497.59;;;16.49;68.06
69306;BME280;56427;51.580;4.656;2023-04-15T11:42:33;101509.78;;;16.22;64.84
69306;BME280;56427;51.580;4.656;2023-04-15T11:45:09;101501.66;;;16.61;65.54
69306;BME280;56427;51.580;4.656;2023-04-15T11:47:35;101503.88;;;15.17;61.85
69306;BME280;56427;51.580;4.656;2023-04-15T11:50:20;101513.16;;;14.92;69.01
69306;BME280;56427;51.580;4.656;2023-04-15T11:53:01;101507.56;;;16.63;75.12
69306;BME280;56427;51.580;4.656;2023-04-15T11:55:27;101499.75;;;15.62;71.75
69306;BME280;56427;51.580;4.656;2023-04-15T12:00:35;101518.44;;;15.67;76.06
69306;BME280;56427;51.580;4.656;2023-04-15T12:03:23;101524.66;;;15.76;78.44
69306;BME280;56427;51.580;4.656;2023-04-15T12:06:23;101527.38;;;15.74;79.16
69306;BME280;56427;51.580;4.656;2023-04-15T12:11:44;101536.53;;;15.03;70.84
69306;BME280;56427;51.580;4.656;2023-04-15T12:14:31;101531.44;;;15.02;69.48
69306;BME280;56427;51.580;4.656;2023-04-15T12:19:37;101545.16;;;14.45;72.29
69306;BME280;56427;51.580;4.656;2023-04-15T12:22:06;101560.13;;;14.33;79.10
69306;BME280;56427;51.580;4.656;2023-04-15T12:24:34;101568.44;;;14.97;78.03
69306;BME280;56427;51.580;4.656;2023-04-15T12:27:07;101560.78;;;15.53;70.84
69306;BME280;56427;51.580;4.656;2023-04-15T12:29:34;101566.75;;;14.38;76.43
69306;BME280;56427;51.580;4.656;2023-04-15T12:34:38;101588.78;;;14.14;79.85
69306;BME280;56427;51.580;4.656;2023-04-15T12:37:06;101578.69;;;13.99;76.20
69306;BME280;56427;51.580;4.656;2023-04-15T12:39:39;101583.03;;;14.20;78.23
69306;BME280;56427;51.580;4.656;2023-04-15T12:42:05;101580.47;;;14.30;76.11
69306;BME280;56427;51.580;4.656;2023-04-15T12:44:32;101592.50;;;15.30;76.07
69306;BME280;56427;51.580;4.656;2023-04-15T12:46:58;101582.63;;;14.15;78.79
69306;BME280;56427;51.580;4.656;2023-04-15T12:49:24;101588.28;;;14.30;82.63
69306;BME280;56427;51.580;4.656;2023-04-15T12:51:52;101604.63;;;14.32;83.59
69306;BME280;56427;51.580;4.656;2023-04-15T12:54:19;101597.53;;;13.72;87.05
69306;BME280;56427;51.580;4.656;2023-04-15T12:56:45;101597.75;;;14.21;84.85
69306;BME280;56427;51.580;4.656;2023-04-15T12:59:12;101603.69;;;13.92;86.53
69306;BME280;56427;51.580;4.656;2023-04-15T13:01:38;101601.47;;;14.28;87.91
69306;BME280;56427;51.580;4.656;2023-04-15T13:04:04;101600.94;;;14.34;90.04
69306;BME280;56427;51.580;4.656;2023-04-15T13:06:29;101611.25;;;14.36;88.91
69306;BME280;56427;51.580;4.656;2023-04-15T13:09:00;101604.31;;;14.15;91.60
69306;BME280;56427;51.580;4.656;2023-04-15T13:11:26;101611.97;;;14.48;92.60
69306;BME280;56427;51.580;4.656;2023-04-15T13:13:55;101613.28;;;14.93;95.97
69306;BME280;56427;51.580;4.656;2023-04-15T13:16:21;101624.13;;;15.46;84.55